createdAt,value
2023-01-23T00:03:40.554Z,1.10
2023-01-23T00:07:57.724Z,1.10
2023-01-23T00:12:14.801Z,1.10
2023-01-23T00:16:32.838Z,1.00
2023-01-23T00:20:49.934Z,1.10
2023-01-23T00:25:07.562Z,1.00
2023-01-23T00:29:24.731Z,1.10
2023-01-23T00:33:43.171Z,1.00
2023-01-23T00:38:00.595Z,1.10
2023-01-23T00:42:18.016Z,1.00
2023-01-23T00:46:35.233Z,1.10
2023-01-23T00:50:53.192Z,1.00
2023-01-23T00:55:10.549Z,1.00
2023-01-23T00:59:27.680Z,1.10
2023-01-23T01:03:45.329Z,1.10
2023-01-23T01:08:02.434Z,1.10
2023-01-23T01:12:19.721Z,1.20
2023-01-23T01:16:37.413Z,1.10
2023-01-23T01:20:55.180Z,1.10
2023-01-23T01:25:12.384Z,1.10
2023-01-23T01:29:29.453Z,1.10
2023-01-23T01:33:46.578Z,1.10
2023-01-23T01:38:03.804Z,1.20
2023-01-23T01:42:20.846Z,1.10
2023-01-23T01:46:38.074Z,1.10
2023-01-23T01:50:55.439Z,1.10
2023-01-23T01:55:13.037Z,1.10
2023-01-23T01:59:36.713Z,0.90
2023-01-23T02:03:55.008Z,1.10
2023-01-23T02:08:16.052Z,1.20
2023-01-23T02:12:35.231Z,1.20
2023-01-23T02:16:52.901Z,1.10
2023-01-23T02:21:10.879Z,1.10
2023-01-23T02:25:44.328Z,1.20
2023-01-23T02:30:01.481Z,1.20
2023-01-23T02:34:18.704Z,1.20
2023-01-23T02:38:44.244Z,1.20
2023-01-23T02:43:01.560Z,1.10
2023-01-23T02:47:18.613Z,1.10
2023-01-23T02:51:35.741Z,1.10
2023-01-23T02:55:53.922Z,1.10
2023-01-23T03:00:20.629Z,1.00
2023-01-23T03:04:37.952Z,1.00
2023-01-23T03:08:56.056Z,1.00
2023-01-23T03:13:13.460Z,1.00
2023-01-23T03:17:30.602Z,1.10
2023-01-23T03:21:47.683Z,1.20
2023-01-23T03:26:04.871Z,1.20
2023-01-23T03:30:22.378Z,1.10
2023-01-23T03:34:39.644Z,1.00
2023-01-23T03:39:15.607Z,1.00
2023-01-23T03:43:33.021Z,1.00
2023-01-23T03:47:50.118Z,0.90
2023-01-23T03:52:07.306Z,1.10
2023-01-23T03:56:24.370Z,1.10
2023-01-23T04:00:41.448Z,1.10
2023-01-23T04:04:58.694Z,1.20
2023-01-23T04:09:15.797Z,1.20
2023-01-23T04:13:33.206Z,1.10
2023-01-23T04:17:50.366Z,1.10
2023-01-23T04:22:07.466Z,1.10
2023-01-23T04:26:24.532Z,1.10
2023-01-23T04:30:41.790Z,1.20
2023-01-23T04:34:58.886Z,1.10
2023-01-23T04:39:15.955Z,1.10
2023-01-23T04:43:33.095Z,1.10
2023-01-23T04:47:50.180Z,1.00
2023-01-23T04:52:07.349Z,1.10
2023-01-23T04:56:24.490Z,1.10
2023-01-23T05:00:41.608Z,1.20
2023-01-23T05:04:58.715Z,1.10
2023-01-23T05:09:15.823Z,1.20
2023-01-23T05:13:33.130Z,1.20
2023-01-23T05:17:50.318Z,1.10
2023-01-23T05:22:07.368Z,1.10
2023-01-23T05:26:24.504Z,1.10
2023-01-23T05:30:41.700Z,1.20
2023-01-23T05:34:58.840Z,1.20
2023-01-23T05:39:15.904Z,1.20
2023-01-23T05:43:32.971Z,1.20
2023-01-23T05:47:50.505Z,1.10
2023-01-23T05:52:07.655Z,1.10
2023-01-23T05:56:25.242Z,1.10
2023-01-23T06:00:42.417Z,1.20
2023-01-23T06:04:59.616Z,1.20
2023-01-23T06:09:16.685Z,1.20
2023-01-23T06:13:33.764Z,1.20
2023-01-23T06:17:51.104Z,1.20
2023-01-23T06:22:08.678Z,1.10
2023-01-23T06:26:25.832Z,1.20
2023-01-23T06:30:42.927Z,1.20
2023-01-23T06:35:00.097Z,1.20
2023-01-23T06:39:17.218Z,1.10
2023-01-23T06:43:34.293Z,1.10
2023-01-23T06:47:52.618Z,1.20
2023-01-23T06:52:09.748Z,1.20
2023-01-23T06:56:26.958Z,1.20
2023-01-23T07:00:45.080Z,1.20
2023-01-23T07:05:03.897Z,1.10
2023-01-23T07:09:23.130Z,1.20
2023-01-23T07:19:03.533Z,1.30
2023-01-23T07:23:27.520Z,1.40
2023-01-23T07:27:52.321Z,1.40
2023-01-23T07:32:13.095Z,1.40
2023-01-23T07:36:40.075Z,1.40
2023-01-23T07:40:59.141Z,1.30
2023-01-23T07:45:16.322Z,1.40
2023-01-23T07:49:33.459Z,1.40
2023-01-23T07:53:50.591Z,1.40
2023-01-23T07:58:07.647Z,1.30
2023-01-23T08:02:24.777Z,1.50
2023-01-23T08:06:41.839Z,1.50
2023-01-23T08:10:58.945Z,1.50
2023-01-23T08:15:16.260Z,1.60
2023-01-23T08:19:33.438Z,1.60
2023-01-23T08:23:52.257Z,1.60
2023-01-23T08:28:09.968Z,1.50
2023-01-23T08:32:29.975Z,1.50
2023-01-23T08:36:48.538Z,1.70
2023-01-23T08:41:07.479Z,1.80
2023-01-23T08:45:25.721Z,1.80
2023-01-23T08:49:48.623Z,1.90
2023-01-23T08:54:06.470Z,1.80
2023-01-23T08:58:28.569Z,1.90
2023-01-23T09:02:48.798Z,2.00
2023-01-23T09:07:08.735Z,1.90
2023-01-23T09:11:28.267Z,1.90
2023-01-23T09:15:47.396Z,1.80
2023-01-23T09:20:07.400Z,1.90
2023-01-23T09:24:28.761Z,2.00
2023-01-23T09:28:46.324Z,1.80
2023-01-23T09:33:28.873Z,1.80
2023-01-23T09:38:04.244Z,1.80
2023-01-23T09:42:33.120Z,2.00
2023-01-23T09:46:55.073Z,2.00
2023-01-23T09:51:25.879Z,1.90
2023-01-23T09:56:07.380Z,2.00
2023-01-23T10:00:32.386Z,2.00
2023-01-23T10:04:53.326Z,2.10
2023-01-23T10:09:43.844Z,2.10
2023-01-23T10:14:38.799Z,2.00
2023-01-23T10:19:33.027Z,2.00
2023-01-23T10:24:04.049Z,1.80
2023-01-23T10:28:42.555Z,2.00
2023-01-23T10:33:10.097Z,1.90
2023-01-23T10:37:31.805Z,1.80
2023-01-23T10:41:54.408Z,1.90
2023-01-23T10:46:32.541Z,2.00
2023-01-23T10:50:51.976Z,2.10
2023-01-23T10:55:20.340Z,2.10
2023-01-23T10:59:48.568Z,2.10
2023-01-23T11:04:20.461Z,2.20
2023-01-23T11:09:08.910Z,2.30
2023-01-23T11:13:30.739Z,2.30
2023-01-23T11:17:51.494Z,2.30
2023-01-23T11:22:28.000Z,2.50
2023-01-23T11:26:46.769Z,2.60
2023-01-23T11:31:15.034Z,2.60
2023-01-23T11:35:49.317Z,2.50
2023-01-23T11:40:23.264Z,2.50
2023-01-23T11:44:46.542Z,2.50
2023-01-23T11:49:44.021Z,2.50
2023-01-23T11:54:26.414Z,2.50
2023-01-23T11:59:07.070Z,2.40
2023-01-23T12:03:49.598Z,2.60
2023-01-23T12:08:24.679Z,2.60
2023-01-23T12:13:24.004Z,2.20
2023-01-23T12:17:51.715Z,2.10
2023-01-23T12:22:34.865Z,2.20
2023-01-23T12:27:30.845Z,2.30
2023-01-23T12:31:50.073Z,2.40
2023-01-23T12:37:08.099Z,2.30
2023-01-23T12:41:42.707Z,2.30
2023-01-23T12:46:12.238Z,2.30
2023-01-23T12:50:56.448Z,2.20
2023-01-23T12:55:20.626Z,2.00
2023-01-23T13:05:06.121Z,2.10
2023-01-23T13:09:37.744Z,2.10
2023-01-23T13:13:56.222Z,2.10
2023-01-23T13:18:25.479Z,2.00
2023-01-23T13:22:43.737Z,2.00
2023-01-23T13:27:34.364Z,2.00
2023-01-23T13:32:13.302Z,2.00
2023-01-23T13:36:35.823Z,1.90
2023-01-23T13:41:17.993Z,1.80
2023-01-23T13:45:36.331Z,1.80
2023-01-23T14:23:39.487Z,1.70
2023-01-23T14:28:08.358Z,1.70
2023-01-23T14:32:31.848Z,1.60
2023-01-23T14:36:53.719Z,1.60
2023-01-23T14:41:11.773Z,1.60
2023-01-23T14:45:33.679Z,1.60
2023-01-23T14:49:51.518Z,1.50
2023-01-23T14:54:23.004Z,1.40
2023-01-23T14:58:41.335Z,1.30
2023-01-23T15:02:58.559Z,1.30
2023-01-23T15:07:17.466Z,1.30
2023-01-23T15:11:35.249Z,1.30
2023-01-23T15:15:56.968Z,1.30
2023-01-23T15:20:32.189Z,1.40
2023-01-23T15:24:49.313Z,1.30
2023-01-23T15:29:09.416Z,1.30
2023-01-23T15:33:31.892Z,1.30
2023-01-23T15:37:49.863Z,1.20
2023-01-23T15:42:12.945Z,1.20
2023-01-23T15:46:30.087Z,1.30
2023-01-23T15:50:47.316Z,1.20
2023-01-23T15:55:05.217Z,1.30
2023-01-23T15:59:22.320Z,1.20
2023-01-23T16:03:39.466Z,1.20
2023-01-23T16:07:57.806Z,1.20
2023-01-23T16:12:17.478Z,1.30
2023-01-23T16:16:34.623Z,1.30
2023-01-23T16:20:51.825Z,1.30
2023-01-23T16:25:26.718Z,1.20
2023-01-23T16:29:49.503Z,1.30
2023-01-23T16:34:06.806Z,1.30
2023-01-23T16:38:27.037Z,1.30
2023-01-23T16:42:46.971Z,1.30
2023-01-23T16:47:04.035Z,1.30
2023-01-23T16:51:24.141Z,1.30
2023-01-23T16:55:43.233Z,1.30
2023-01-23T17:00:00.395Z,1.30
2023-01-23T17:04:20.295Z,1.30
2023-01-23T17:08:39.335Z,1.30
2023-01-23T17:12:57.355Z,1.30
2023-01-23T17:17:19.079Z,1.30
2023-01-23T17:21:36.372Z,1.30
2023-01-23T17:26:00.862Z,1.20
2023-01-23T17:30:22.985Z,1.20
2023-01-23T17:34:49.400Z,1.20
2023-01-23T17:39:08.595Z,1.20
2023-01-23T17:43:25.662Z,1.20
2023-01-23T17:47:45.260Z,1.20
2023-01-23T17:52:02.613Z,1.10
2023-01-23T17:56:19.791Z,1.20
2023-01-23T18:00:40.023Z,1.20
2023-01-23T18:04:57.410Z,1.20
2023-01-23T18:09:14.951Z,1.20
2023-01-23T18:13:46.933Z,1.30
2023-01-23T18:18:04.145Z,1.30
2023-01-23T18:22:21.569Z,1.20
2023-01-23T18:27:19.496Z,1.30
2023-01-23T18:31:53.878Z,1.30
2023-01-23T18:36:39.746Z,1.30
2023-01-23T18:41:26.304Z,1.20
2023-01-23T18:45:43.740Z,1.40
2023-01-23T18:50:01.034Z,1.30
2023-01-23T18:54:39.006Z,1.30
2023-01-23T18:59:14.309Z,1.30
2023-01-23T19:03:43.367Z,1.30
2023-01-23T19:08:02.181Z,1.30
2023-01-23T19:12:26.410Z,1.30
2023-01-23T19:16:58.646Z,1.40
2023-01-23T19:21:28.180Z,1.30
2023-01-23T19:25:47.907Z,1.40
2023-01-23T19:30:05.580Z,1.40
2023-01-23T19:34:22.825Z,1.40
2023-01-23T19:38:39.948Z,1.50
2023-01-23T19:43:12.815Z,1.50
2023-01-23T19:47:31.060Z,1.40
2023-01-23T19:51:48.259Z,1.40
2023-01-23T19:56:05.793Z,1.40
2023-01-23T20:00:24.518Z,1.40
2023-01-23T20:04:41.567Z,1.40
2023-01-23T20:08:59.071Z,1.40
2023-01-23T20:13:16.146Z,1.40
2023-01-23T20:17:33.231Z,1.40
2023-01-23T20:21:50.358Z,1.40
2023-01-23T20:26:08.203Z,1.40
2023-01-23T20:30:25.410Z,1.40
2023-01-23T20:34:42.507Z,1.40
2023-01-23T20:38:59.598Z,1.40
2023-01-23T20:43:17.200Z,1.40
2023-01-23T20:47:35.980Z,1.40
2023-01-23T20:51:53.078Z,1.40
2023-01-23T20:56:16.126Z,1.40
2023-01-23T21:00:33.193Z,1.40
2023-01-23T21:04:51.640Z,1.40
2023-01-23T21:09:09.032Z,1.40
2023-01-23T21:13:26.262Z,1.40
2023-01-23T21:17:43.368Z,1.40
2023-01-23T21:22:00.441Z,1.50
2023-01-23T21:26:22.154Z,1.40
2023-01-23T21:30:39.738Z,1.50
2023-01-23T21:34:57.027Z,1.50
2023-01-23T21:39:14.978Z,1.50
2023-01-23T21:43:32.324Z,1.40
2023-01-23T21:47:49.390Z,1.30
2023-01-23T21:52:06.468Z,1.40
2023-01-23T21:56:24.072Z,1.50
2023-01-23T22:01:00.140Z,1.50
2023-01-23T22:05:17.211Z,1.50
2023-01-23T22:09:34.401Z,1.40
2023-01-23T22:13:51.741Z,1.40
2023-01-23T22:18:09.010Z,1.40
2023-01-23T22:22:26.286Z,1.40
2023-01-23T22:26:43.377Z,1.40
2023-01-23T22:31:15.395Z,1.40
2023-01-23T22:35:36.690Z,1.40
2023-01-23T22:39:53.973Z,1.30
2023-01-23T22:44:11.928Z,1.40
2023-01-23T22:48:29.034Z,1.50
2023-01-23T22:52:46.368Z,1.40
2023-01-23T22:57:03.546Z,1.40
2023-01-23T23:01:26.226Z,1.40
2023-01-23T23:05:43.326Z,1.40
2023-01-23T23:10:00.419Z,1.40
2023-01-23T23:14:18.125Z,1.40
2023-01-23T23:18:37.443Z,1.40
2023-01-23T23:22:56.052Z,1.40
2023-01-23T23:27:13.117Z,1.40
2023-01-23T23:31:30.541Z,1.40
2023-01-23T23:35:47.833Z,1.30
2023-01-23T23:40:05.386Z,1.30
2023-01-23T23:44:22.570Z,1.30
2023-01-23T23:48:40.736Z,1.30
2023-01-23T23:52:58.063Z,1.30
2023-01-23T23:57:15.096Z,1.30
